sensor_id;sensor_type;location;lat;lon;timestamp;temperature;humidity
21682;DHT22;11002;48.256;10.084;2023-12-04T00:01:54;-7.20;58.50
21682;DHT22;11002;48.256;10.084;2023-12-04T00:04:22;-7.20;58.20
21682;DHT22;11002;48.256;10.084;2023-12-04T00:06:49;-7.30;58.00
21682;DHT22;11002;48.256;10.084;2023-12-04T00:09:17;-7.30;58.70
21682;DHT22;11002;48.256;10.084;2023-12-04T00:11:44;-7.50;59.00
21682;DHT22;11002;48.256;10.084;2023-12-04T00:14:12;-7.50;59.20
21682;DHT22;11002;48.256;10.084;2023-12-04T00:16:39;-7.40;59.20
21682;DHT22;11002;48.256;10.084;2023-12-04T00:19:06;-7.50;59.50
21682;DHT22;11002;48.256;10.084;2023-12-04T00:21:33;-7.30;59.60
21682;DHT22;11002;48.256;10.084;2023-12-04T00:24:01;-7.20;59.50
21682;DHT22;11002;48.256;10.084;2023-12-04T00:26:29;-7.50;59.00
21682;DHT22;11002;48.256;10.084;2023-12-04T00:28:56;-7.80;59.20
21682;DHT22;11002;48.256;10.084;2023-12-04T00:31:24;-7.80;60.00
21682;DHT22;11002;48.256;10.084;2023-12-04T00:33:51;-7.70;61.30
21682;DHT22;11002;48.256;10.084;2023-12-04T00:36:18;-8.00;61.60
21682;DHT22;11002;48.256;10.084;2023-12-04T00:38:46;-7.90;62.80
21682;DHT22;11002;48.256;10.084;2023-12-04T00:41:13;-7.90;63.20
21682;DHT22;11002;48.256;10.084;2023-12-04T00:43:42;-8.00;63.40
21682;DHT22;11002;48.256;10.084;2023-12-04T00:46:09;-8.00;63.90
21682;DHT22;11002;48.256;10.084;2023-12-04T00:48:36;-8.00;63.90
21682;DHT22;11002;48.256;10.084;2023-12-04T00:51:04;-7.90;64.60
21682;DHT22;11002;48.256;10.084;2023-12-04T00:53:31;-7.80;65.20
21682;DHT22;11002;48.256;10.084;2023-12-04T00:55:58;-7.80;64.90
21682;DHT22;11002;48.256;10.084;2023-12-04T00:58:25;-7.70;64.50
21682;DHT22;11002;48.256;10.084;2023-12-04T01:00:54;-7.70;64.30
21682;DHT22;11002;48.256;10.084;2023-12-04T01:03:23;-7.80;64.20
21682;DHT22;11002;48.256;10.084;2023-12-04T01:05:52;-7.60;63.80
21682;DHT22;11002;48.256;10.084;2023-12-04T01:08:19;-7.60;63.00
21682;DHT22;11002;48.256;10.084;2023-12-04T01:10:46;-7.70;62.40
21682;DHT22;11002;48.256;10.084;2023-12-04T01:13:14;-7.60;62.00
21682;DHT22;11002;48.256;10.084;2023-12-04T01:15:41;-7.50;61.20
21682;DHT22;11002;48.256;10.084;2023-12-04T01:18:12;-7.40;60.30
21682;DHT22;11002;48.256;10.084;2023-12-04T01:20:39;-7.70;59.10
21682;DHT22;11002;48.256;10.084;2023-12-04T01:23:06;-7.70;58.70
21682;DHT22;11002;48.256;10.084;2023-12-04T01:25:33;-7.50;58.60
21682;DHT22;11002;48.256;10.084;2023-12-04T01:28:01;-7.50;58.20
21682;DHT22;11002;48.256;10.084;2023-12-04T01:30:28;-7.80;57.40
21682;DHT22;11002;48.256;10.084;2023-12-04T01:32:55;-7.80;56.80
21682;DHT22;11002;48.256;10.084;2023-12-04T01:35:24;-7.90;56.90
21682;DHT22;11002;48.256;10.084;2023-12-04T01:37:51;-7.80;57.10
21682;DHT22;11002;48.256;10.084;2023-12-04T01:40:18;-7.70;57.50
21682;DHT22;11002;48.256;10.084;2023-12-04T01:42:45;-7.80;57.70
21682;DHT22;11002;48.256;10.084;2023-12-04T01:45:13;-7.90;57.60
21682;DHT22;11002;48.256;10.084;2023-12-04T01:47:40;-7.70;57.40
21682;DHT22;11002;48.256;10.084;2023-12-04T01:50:08;-7.70;57.40
21682;DHT22;11002;48.256;10.084;2023-12-04T01:52:37;-7.70;58.10
21682;DHT22;11002;48.256;10.084;2023-12-04T01:55:06;-7.90;58.60
21682;DHT22;11002;48.256;10.084;2023-12-04T01:57:34;-7.70;59.40
21682;DHT22;11002;48.256;10.084;2023-12-04T02:00:02;-7.90;59.50
21682;DHT22;11002;48.256;10.084;2023-12-04T02:02:37;-8.00;59.70
21682;DHT22;11002;48.256;10.084;2023-12-04T02:05:06;-8.10;60.10
21682;DHT22;11002;48.256;10.084;2023-12-04T02:07:34;-8.00;60.50
21682;DHT22;11002;48.256;10.084;2023-12-04T02:10:04;-8.10;61.50
21682;DHT22;11002;48.256;10.084;2023-12-04T02:12:32;-8.20;62.90
21682;DHT22;11002;48.256;10.084;2023-12-04T02:14:59;-7.90;64.00
21682;DHT22;11002;48.256;10.084;2023-12-04T02:17:28;-7.90;64.70
21682;DHT22;11002;48.256;10.084;2023-12-04T02:19:55;-7.80;64.80
21682;DHT22;11002;48.256;10.084;2023-12-04T02:22:23;-7.80;64.60
21682;DHT22;11002;48.256;10.084;2023-12-04T02:24:51;-7.90;63.70
21682;DHT22;11002;48.256;10.084;2023-12-04T02:27:22;-7.60;63.30
21682;DHT22;11002;48.256;10.084;2023-12-04T02:29:53;-7.60;63.10
21682;DHT22;11002;48.256;10.084;2023-12-04T02:32:23;-7.60;63.40
21682;DHT22;11002;48.256;10.084;2023-12-04T02:34:53;-7.60;63.70
21682;DHT22;11002;48.256;10.084;2023-12-04T02:37:23;-7.60;63.70
21682;DHT22;11002;48.256;10.084;2023-12-04T02:39:52;-7.40;63.80
21682;DHT22;11002;48.256;10.084;2023-12-04T02:42:21;-7.70;63.10
21682;DHT22;11002;48.256;10.084;2023-12-04T02:44:50;-7.40;63.20
21682;DHT22;11002;48.256;10.084;2023-12-04T02:47:18;-7.50;63.10
21682;DHT22;11002;48.256;10.084;2023-12-04T02:49:45;-7.60;62.10
21682;DHT22;11002;48.256;10.084;2023-12-04T02:52:12;-7.70;62.40
21682;DHT22;11002;48.256;10.084;2023-12-04T02:54:39;-7.70;62.40
21682;DHT22;11002;48.256;10.084;2023-12-04T02:57:08;-7.60;62.00
21682;DHT22;11002;48.256;10.084;2023-12-04T02:59:35;-7.60;62.30
21682;DHT22;11002;48.256;10.084;2023-12-04T03:02:03;-7.80;62.60
21682;DHT22;11002;48.256;10.084;2023-12-04T03:04:30;-7.60;63.70
21682;DHT22;11002;48.256;10.084;2023-12-04T03:06:58;-7.60;62.90
21682;DHT22;11002;48.256;10.084;2023-12-04T03:09:25;-7.80;62.60
21682;DHT22;11002;48.256;10.084;2023-12-04T03:11:52;-7.70;63.00
21682;DHT22;11002;48.256;10.084;2023-12-04T03:14:21;-7.60;63.10
21682;DHT22;11002;48.256;10.084;2023-12-04T03:16:49;-7.70;63.00
21682;DHT22;11002;48.256;10.084;2023-12-04T03:19:16;-7.60;63.40
21682;DHT22;11002;48.256;10.084;2023-12-04T03:21:43;-7.80;63.20
21682;DHT22;11002;48.256;10.084;2023-12-04T03:24:11;-7.80;63.20
21682;DHT22;11002;48.256;10.084;2023-12-04T03:26:38;-7.90;63.90
21682;DHT22;11002;48.256;10.084;2023-12-04T03:29:05;-7.90;64.20
21682;DHT22;11002;48.256;10.084;2023-12-04T03:31:33;-7.80;64.70
21682;DHT22;11002;48.256;10.084;2023-12-04T03:34:02;-7.90;64.40
21682;DHT22;11002;48.256;10.084;2023-12-04T03:36:29;-7.70;63.90
21682;DHT22;11002;48.256;10.084;2023-12-04T03:38:56;-8.00;63.20
21682;DHT22;11002;48.256;10.084;2023-12-04T03:41:24;-7.90;63.50
21682;DHT22;11002;48.256;10.084;2023-12-04T03:43:51;-7.90;63.20
21682;DHT22;11002;48.256;10.084;2023-12-04T03:46:18;-8.10;62.60
21682;DHT22;11002;48.256;10.084;2023-12-04T03:48:47;-8.00;62.40
21682;DHT22;11002;48.256;10.084;2023-12-04T03:51:14;-8.10;61.50
21682;DHT22;11002;48.256;10.084;2023-12-04T03:53:41;-8.10;62.30
21682;DHT22;11002;48.256;10.084;2023-12-04T03:56:10;-7.90;62.70
21682;DHT22;11002;48.256;10.084;2023-12-04T03:58:37;-8.10;62.60
21682;DHT22;11002;48.256;10.084;2023-12-04T04:01:05;-7.90;63.10
21682;DHT22;11002;48.256;10.084;2023-12-04T04:03:33;-8.00;63.20
21682;DHT22;11002;48.256;10.084;2023-12-04T04:06:02;-8.10;63.70
21682;DHT22;11002;48.256;10.084;2023-12-04T04:08:29;-8.30;63.80
21682;DHT22;11002;48.256;10.084;2023-12-04T04:10:56;-8.20;64.60
21682;DHT22;11002;48.256;10.084;2023-12-04T04:13:23;-8.30;64.70
21682;DHT22;11002;48.256;10.084;2023-12-04T04:15:51;-8.30;64.40
21682;DHT22;11002;48.256;10.084;2023-12-04T04:18:18;-8.20;64.30
21682;DHT22;11002;48.256;10.084;2023-12-04T04:20:45;-8.10;64.10
21682;DHT22;11002;48.256;10.084;2023-12-04T04:23:14;-7.90;64.50
21682;DHT22;11002;48.256;10.084;2023-12-04T04:25:41;-8.30;63.90
21682;DHT22;11002;48.256;10.084;2023-12-04T04:28:08;-8.20;63.70
21682;DHT22;11002;48.256;10.084;2023-12-04T04:30:35;-8.00;64.00
21682;DHT22;11002;48.256;10.084;2023-12-04T04:33:11;-8.00;63.70
21682;DHT22;11002;48.256;10.084;2023-12-04T04:37:08;-8.30;63.40
21682;DHT22;11002;48.256;10.084;2023-12-04T04:41:07;-8.10;63.60
21682;DHT22;11002;48.256;10.084;2023-12-04T04:43:47;-8.10;62.50
21682;DHT22;11002;48.256;10.084;2023-12-04T04:46:55;-8.40;61.60
21682;DHT22;11002;48.256;10.084;2023-12-04T04:50:07;-8.50;60.90
21682;DHT22;11002;48.256;10.084;2023-12-04T04:53:07;-8.50;61.00
21682;DHT22;11002;48.256;10.084;2023-12-04T04:55:42;-8.40;61.00
21682;DHT22;11002;48.256;10.084;2023-12-04T04:58:17;-8.60;61.20
21682;DHT22;11002;48.256;10.084;2023-12-04T05:00:47;-8.60;61.00
21682;DHT22;11002;48.256;10.084;2023-12-04T05:03:16;-8.50;61.10
21682;DHT22;11002;48.256;10.084;2023-12-04T05:05:45;-8.80;61.50
21682;DHT22;11002;48.256;10.084;2023-12-04T05:08:34;-8.80;62.00
21682;DHT22;11002;48.256;10.084;2023-12-04T05:11:26;-8.80;62.10
21682;DHT22;11002;48.256;10.084;2023-12-04T05:14:25;-8.40;63.00
21682;DHT22;11002;48.256;10.084;2023-12-04T05:17:00;-8.80;63.00
21682;DHT22;11002;48.256;10.084;2023-12-04T05:19:28;-8.30;63.60
21682;DHT22;11002;48.256;10.084;2023-12-04T05:21:56;-8.30;63.30
21682;DHT22;11002;48.256;10.084;2023-12-04T05:24:28;-8.40;62.40
21682;DHT22;11002;48.256;10.084;2023-12-04T05:27:05;-8.40;61.30
21682;DHT22;11002;48.256;10.084;2023-12-04T05:30:00;-8.30;60.80
21682;DHT22;11002;48.256;10.084;2023-12-04T05:32:41;-8.60;59.90
21682;DHT22;11002;48.256;10.084;2023-12-04T05:35:14;-8.60;59.30
21682;DHT22;11002;48.256;10.084;2023-12-04T05:37:48;-8.60;58.50
21682;DHT22;11002;48.256;10.084;2023-12-04T05:40:20;-8.70;58.40
21682;DHT22;11002;48.256;10.084;2023-12-04T05:42:54;-8.80;58.10
21682;DHT22;11002;48.256;10.084;2023-12-04T05:45:26;-8.80;58.20
21682;DHT22;11002;48.256;10.084;2023-12-04T05:48:03;-8.70;58.30
21682;DHT22;11002;48.256;10.084;2023-12-04T05:50:35;-8.70;58.50
21682;DHT22;11002;48.256;10.084;2023-12-04T05:53:12;-8.80;58.80
21682;DHT22;11002;48.256;10.084;2023-12-04T05:55:57;-9.00;59.00
21682;DHT22;11002;48.256;10.084;2023-12-04T05:58:35;-8.70;59.20
21682;DHT22;11002;48.256;10.084;2023-12-04T06:01:28;-8.90;58.60
21682;DHT22;11002;48.256;10.084;2023-12-04T06:04:23;-8.60;58.30
21682;DHT22;11002;48.256;10.084;2023-12-04T06:07:18;-8.70;58.00
21682;DHT22;11002;48.256;10.084;2023-12-04T06:10:00;-8.70;57.90
21682;DHT22;11002;48.256;10.084;2023-12-04T06:12:29;-8.70;57.70
21682;DHT22;11002;48.256;10.084;2023-12-04T06:15:09;-8.50;57.70
21682;DHT22;11002;48.256;10.084;2023-12-04T06:17:38;-8.60;57.40
21682;DHT22;11002;48.256;10.084;2023-12-04T06:20:10;-8.60;57.00
21682;DHT22;11002;48.256;10.084;2023-12-04T06:23:05;-8.40;57.20
21682;DHT22;11002;48.256;10.084;2023-12-04T06:25:48;-8.40;57.00
21682;DHT22;11002;48.256;10.084;2023-12-04T06:28:46;-8.50;56.80
21682;DHT22;11002;48.256;10.084;2023-12-04T06:31:33;-8.50;56.80
21682;DHT22;11002;48.256;10.084;2023-12-04T06:34:05;-8.70;56.70
21682;DHT22;11002;48.256;10.084;2023-12-04T06:36:42;-8.60;57.30
21682;DHT22;11002;48.256;10.084;2023-12-04T06:40:01;-8.80;57.30
21682;DHT22;11002;48.256;10.084;2023-12-04T06:42:41;-8.80;57.30
21682;DHT22;11002;48.256;10.084;2023-12-04T06:45:35;-8.70;57.50
21682;DHT22;11002;48.256;10.084;2023-12-04T06:48:11;-8.60;57.50
21682;DHT22;11002;48.256;10.084;2023-12-04T06:51:25;-8.70;57.50
21682;DHT22;11002;48.256;10.084;2023-12-04T06:54:06;-8.50;57.40
21682;DHT22;11002;48.256;10.084;2023-12-04T06:56:42;-8.60;56.70
21682;DHT22;11002;48.256;10.084;2023-12-04T06:59:28;-8.60;56.60
21682;DHT22;11002;48.256;10.084;2023-12-04T07:02:17;-8.60;56.40
21682;DHT22;11002;48.256;10.084;2023-12-04T07:04:48;-8.50;55.00
21682;DHT22;11002;48.256;10.084;2023-12-04T07:07:21;-8.70;55.20
21682;DHT22;11002;48.256;10.084;2023-12-04T07:09:59;-8.80;55.70
21682;DHT22;11002;48.256;10.084;2023-12-04T07:12:54;-8.70;55.90
21682;DHT22;11002;48.256;10.084;2023-12-04T07:15:39;-8.80;56.00
21682;DHT22;11002;48.256;10.084;2023-12-04T07:18:21;-8.70;55.90
21682;DHT22;11002;48.256;10.084;2023-12-04T07:21:05;-8.50;55.90
21682;DHT22;11002;48.256;10.084;2023-12-04T07:24:10;-8.70;55.90
21682;DHT22;11002;48.256;10.084;2023-12-04T07:26:55;-8.80;55.70
21682;DHT22;11002;48.256;10.084;2023-12-04T07:29:43;-8.60;56.10
21682;DHT22;11002;48.256;10.084;2023-12-04T07:32:40;-8.40;56.10
21682;DHT22;11002;48.256;10.084;2023-12-04T07:35:16;-8.40;56.10
21682;DHT22;11002;48.256;10.084;2023-12-04T07:37:57;-8.30;56.00
21682;DHT22;11002;48.256;10.084;2023-12-04T07:40:40;-8.40;55.80
21682;DHT22;11002;48.256;10.084;2023-12-04T07:43:22;-8.30;55.40
21682;DHT22;11002;48.256;10.084;2023-12-04T07:46:39;-8.10;55.00
21682;DHT22;11002;48.256;10.084;2023-12-04T07:49:30;-8.10;55.00
21682;DHT22;11002;48.256;10.084;2023-12-04T07:52:07;-8.20;54.70
21682;DHT22;11002;48.256;10.084;2023-12-04T07:54:51;-8.10;54.60
21682;DHT22;11002;48.256;10.084;2023-12-04T07:58:20;-8.00;54.70
21682;DHT22;11002;48.256;10.084;2023-12-04T08:01:38;-7.90;54.60
21682;DHT22;11002;48.256;10.084;2023-12-04T08:04:16;-8.00;54.30
21682;DHT22;11002;48.256;10.084;2023-12-04T08:07:14;-7.70;54.70
21682;DHT22;11002;48.256;10.084;2023-12-04T08:10:05;-7.70;54.30
21682;DHT22;11002;48.256;10.084;2023-12-04T08:12:44;-7.70;54.00
21682;DHT22;11002;48.256;10.084;2023-12-04T08:18:24;-7.60;54.10
21682;DHT22;11002;48.256;10.084;2023-12-04T08:21:02;-7.70;53.70
21682;DHT22;11002;48.256;10.084;2023-12-04T08:23:53;-7.90;53.30
21682;DHT22;11002;48.256;10.084;2023-12-04T08:26:34;-7.70;53.70
21682;DHT22;11002;48.256;10.084;2023-12-04T08:29:16;-7.80;53.80
21682;DHT22;11002;48.256;10.084;2023-12-04T08:32:16;-7.60;54.10
21682;DHT22;11002;48.256;10.084;2023-12-04T08:35:06;-7.80;53.80
21682;DHT22;11002;48.256;10.084;2023-12-04T08:38:06;-7.40;54.10
21682;DHT22;11002;48.256;10.084;2023-12-04T08:40:48;-7.50;53.30
21682;DHT22;11002;48.256;10.084;2023-12-04T08:43:35;-7.50;53.70
21682;DHT22;11002;48.256;10.084;2023-12-04T08:46:38;-7.50;53.60
21682;DHT22;11002;48.256;10.084;2023-12-04T08:50:27;-7.40;54.00
21682;DHT22;11002;48.256;10.084;2023-12-04T08:53:08;-7.20;54.00
21682;DHT22;11002;48.256;10.084;2023-12-04T08:56:23;-7.20;53.90
21682;DHT22;11002;48.256;10.084;2023-12-04T08:59:47;-7.20;53.70
21682;DHT22;11002;48.256;10.084;2023-12-04T09:02:23;-7.00;54.10
21682;DHT22;11002;48.256;10.084;2023-12-04T09:05:02;-6.80;53.80
21682;DHT22;11002;48.256;10.084;2023-12-04T09:07:42;-6.80;51.60
21682;DHT22;11002;48.256;10.084;2023-12-04T09:11:08;-7.00;51.90
21682;DHT22;11002;48.256;10.084;2023-12-04T09:13:49;-7.00;51.70
21682;DHT22;11002;48.256;10.084;2023-12-04T09:16:42;-7.10;52.00
21682;DHT22;11002;48.256;10.084;2023-12-04T09:23:42;-6.90;52.30
21682;DHT22;11002;48.256;10.084;2023-12-04T09:26:40;-6.80;51.70
21682;DHT22;11002;48.256;10.084;2023-12-04T09:29:28;-6.80;51.70
21682;DHT22;11002;48.256;10.084;2023-12-04T09:32:30;-6.80;51.10
21682;DHT22;11002;48.256;10.084;2023-12-04T09:35:32;-6.90;51.40
21682;DHT22;11002;48.256;10.084;2023-12-04T09:38:37;-6.80;51.90
21682;DHT22;11002;48.256;10.084;2023-12-04T09:44:38;-6.60;51.50
21682;DHT22;11002;48.256;10.084;2023-12-04T09:49:43;-6.50;52.30
21682;DHT22;11002;48.256;10.084;2023-12-04T09:51:53;-6.10;52.50
21682;DHT22;11002;48.256;10.084;2023-12-04T09:55:05;-6.00;51.10
21682;DHT22;11002;48.256;10.084;2023-12-04T09:58:29;-5.90;51.30
21682;DHT22;11002;48.256;10.084;2023-12-04T10:01:21;-5.70;51.50
21682;DHT22;11002;48.256;10.084;2023-12-04T10:07:12;-5.60;51.80
21682;DHT22;11002;48.256;10.084;2023-12-04T10:08:48;-5.60;51.70
21682;DHT22;11002;48.256;10.084;2023-12-04T10:11:53;-5.30;51.50
21682;DHT22;11002;48.256;10.084;2023-12-04T10:15:12;-5.10;50.80
21682;DHT22;11002;48.256;10.084;2023-12-04T10:25:15;-4.80;50.20
21682;DHT22;11002;48.256;10.084;2023-12-04T10:27:46;-5.20;49.60
21682;DHT22;11002;48.256;10.084;2023-12-04T10:30:24;-5.30;50.40
21682;DHT22;11002;48.256;10.084;2023-12-04T10:32:55;-5.30;51.10
21682;DHT22;11002;48.256;10.084;2023-12-04T10:35:28;-5.50;51.50
21682;DHT22;11002;48.256;10.084;2023-12-04T10:37:56;-5.40;52.40
21682;DHT22;11002;48.256;10.084;2023-12-04T10:40:24;-5.50;52.60
21682;DHT22;11002;48.256;10.084;2023-12-04T10:43:10;-5.30;52.00
21682;DHT22;11002;48.256;10.084;2023-12-04T10:45:38;-5.10;52.70
21682;DHT22;11002;48.256;10.084;2023-12-04T10:48:06;-5.00;53.10
21682;DHT22;11002;48.256;10.084;2023-12-04T10:50:34;-4.90;52.70
21682;DHT22;11002;48.256;10.084;2023-12-04T10:53:02;-4.80;52.70
21682;DHT22;11002;48.256;10.084;2023-12-04T10:55:30;-4.70;52.40
21682;DHT22;11002;48.256;10.084;2023-12-04T10:57:59;-4.50;52.70
21682;DHT22;11002;48.256;10.084;2023-12-04T11:00:28;-4.40;52.80
21682;DHT22;11002;48.256;10.084;2023-12-04T11:02:56;-4.20;52.80
21682;DHT22;11002;48.256;10.084;2023-12-04T11:05:27;-4.50;52.60
21682;DHT22;11002;48.256;10.084;2023-12-04T11:07:57;-4.40;52.20
21682;DHT22;11002;48.256;10.084;2023-12-04T11:10:26;-4.30;52.80
21682;DHT22;11002;48.256;10.084;2023-12-04T11:13:00;-4.40;52.30
21682;DHT22;11002;48.256;10.084;2023-12-04T11:15:30;-4.20;52.70
21682;DHT22;11002;48.256;10.084;2023-12-04T11:17:59;-4.10;52.50
21682;DHT22;11002;48.256;10.084;2023-12-04T11:20:29;-4.00;52.90
21682;DHT22;11002;48.256;10.084;2023-12-04T11:22:58;-3.80;52.10
21682;DHT22;11002;48.256;10.084;2023-12-04T11:25:26;-3.60;51.40
21682;DHT22;11002;48.256;10.084;2023-12-04T11:27:55;-3.60;50.60
21682;DHT22;11002;48.256;10.084;2023-12-04T11:30:24;-3.40;50.00
21682;DHT22;11002;48.256;10.084;2023-12-04T11:32:51;-3.70;49.50
21682;DHT22;11002;48.256;10.084;2023-12-04T11:35:25;-3.70;49.50
21682;DHT22;11002;48.256;10.084;2023-12-04T11:37:53;-3.60;49.60
21682;DHT22;11002;48.256;10.084;2023-12-04T11:40:20;-3.70;50.10
21682;DHT22;11002;48.256;10.084;2023-12-04T11:42:47;-3.10;50.30
21682;DHT22;11002;48.256;10.084;2023-12-04T11:45:18;-2.80;49.90
21682;DHT22;11002;48.256;10.084;2023-12-04T11:47:52;-2.80;47.90
21682;DHT22;11002;48.256;10.084;2023-12-04T11:50:21;-2.70;47.80
21682;DHT22;11002;48.256;10.084;2023-12-04T11:52:48;-2.80;47.00
21682;DHT22;11002;48.256;10.084;2023-12-04T11:55:17;-2.60;46.90
21682;DHT22;11002;48.256;10.084;2023-12-04T11:57:44;-2.60;47.50
21682;DHT22;11002;48.256;10.084;2023-12-04T12:00:19;-2.90;46.70
21682;DHT22;11002;48.256;10.084;2023-12-04T12:03:00;-3.10;48.00
21682;DHT22;11002;48.256;10.084;2023-12-04T12:05:30;-2.80;48.40
21682;DHT22;11002;48.256;10.084;2023-12-04T12:08:01;-3.20;48.60
21682;DHT22;11002;48.256;10.084;2023-12-04T12:10:29;-3.30;49.30
21682;DHT22;11002;48.256;10.084;2023-12-04T12:12:56;-3.20;49.90
21682;DHT22;11002;48.256;10.084;2023-12-04T12:15:24;-3.30;49.90
21682;DHT22;11002;48.256;10.084;2023-12-04T12:17:51;-3.30;50.60
21682;DHT22;11002;48.256;10.084;2023-12-04T12:20:19;-3.10;51.20
21682;DHT22;11002;48.256;10.084;2023-12-04T12:22:49;-2.90;51.30
21682;DHT22;11002;48.256;10.084;2023-12-04T12:25:17;-2.80;50.20
21682;DHT22;11002;48.256;10.084;2023-12-04T12:27:45;-2.50;50.50
21682;DHT22;11002;48.256;10.084;2023-12-04T12:30:13;-2.50;50.10
21682;DHT22;11002;48.256;10.084;2023-12-04T12:32:40;-2.30;49.70
21682;DHT22;11002;48.256;10.084;2023-12-04T12:35:07;-2.20;49.00
21682;DHT22;11002;48.256;10.084;2023-12-04T12:37:35;-2.40;49.10
21682;DHT22;11002;48.256;10.084;2023-12-04T12:40:06;-2.60;48.70
21682;DHT22;11002;48.256;10.084;2023-12-04T12:42:36;-2.40;49.10
21682;DHT22;11002;48.256;10.084;2023-12-04T12:45:06;-2.60;49.00
21682;DHT22;11002;48.256;10.084;2023-12-04T12:47:36;-2.50;48.80
21682;DHT22;11002;48.256;10.084;2023-12-04T12:50:04;-2.30;49.20
21682;DHT22;11002;48.256;10.084;2023-12-04T12:52:37;-2.40;48.90
21682;DHT22;11002;48.256;10.084;2023-12-04T12:55:06;-2.40;48.50
21682;DHT22;11002;48.256;10.084;2023-12-04T12:57:34;-2.50;48.30
21682;DHT22;11002;48.256;10.084;2023-12-04T13:02:52;-2.70;49.30
21682;DHT22;11002;48.256;10.084;2023-12-04T13:05:20;-2.80;50.00
21682;DHT22;11002;48.256;10.084;2023-12-04T13:07:47;-2.80;49.90
21682;DHT22;11002;48.256;10.084;2023-12-04T13:10:16;-2.60;50.00
21682;DHT22;11002;48.256;10.084;2023-12-04T13:12:43;-2.60;50.20
21682;DHT22;11002;48.256;10.084;2023-12-04T13:15:11;-2.60;50.50
21682;DHT22;11002;48.256;10.084;2023-12-04T13:17:38;-2.90;50.90
21682;DHT22;11002;48.256;10.084;2023-12-04T13:20:06;-2.80;51.50
21682;DHT22;11002;48.256;10.084;2023-12-04T13:22:37;-2.80;51.40
21682;DHT22;11002;48.256;10.084;2023-12-04T13:25:05;-2.70;50.80
21682;DHT22;11002;48.256;10.084;2023-12-04T13:27:37;-2.80;51.50
21682;DHT22;11002;48.256;10.084;2023-12-04T13:30:06;-2.70;51.60
21682;DHT22;11002;48.256;10.084;2023-12-04T13:32:43;-2.70;51.50
21682;DHT22;11002;48.256;10.084;2023-12-04T13:35:16;-2.70;51.90
21682;DHT22;11002;48.256;10.084;2023-12-04T13:37:45;-2.90;52.40
21682;DHT22;11002;48.256;10.084;2023-12-04T13:40:21;-2.80;53.20
21682;DHT22;11002;48.256;10.084;2023-12-04T13:43:00;-2.80;53.30
21682;DHT22;11002;48.256;10.084;2023-12-04T13:45:46;-2.80;53.50
21682;DHT22;11002;48.256;10.084;2023-12-04T13:48:14;-2.70;53.50
21682;DHT22;11002;48.256;10.084;2023-12-04T13:50:44;-2.40;53.30
21682;DHT22;11002;48.256;10.084;2023-12-04T13:53:12;-2.30;53.10
21682;DHT22;11002;48.256;10.084;2023-12-04T13:55:41;-2.40;52.50
21682;DHT22;11002;48.256;10.084;2023-12-04T13:58:36;-2.40;52.70
21682;DHT22;11002;48.256;10.084;2023-12-04T14:01:07;-2.50;52.50
21682;DHT22;11002;48.256;10.084;2023-12-04T14:03:40;-2.40;52.80
21682;DHT22;11002;48.256;10.084;2023-12-04T14:06:09;-2.50;52.80
21682;DHT22;11002;48.256;10.084;2023-12-04T14:08:37;-2.50;53.20
21682;DHT22;11002;48.256;10.084;2023-12-04T14:11:06;-2.40;53.50
21682;DHT22;11002;48.256;10.084;2023-12-04T14:13:35;-2.60;53.60
21682;DHT22;11002;48.256;10.084;2023-12-04T14:16:04;-2.40;53.80
21682;DHT22;11002;48.256;10.084;2023-12-04T14:18:32;-2.50;53.70
21682;DHT22;11002;48.256;10.084;2023-12-04T14:21:00;-2.60;53.40
21682;DHT22;11002;48.256;10.084;2023-12-04T14:23:28;-2.40;53.70
21682;DHT22;11002;48.256;10.084;2023-12-04T14:25:56;-2.60;53.80
21682;DHT22;11002;48.256;10.084;2023-12-04T14:28:24;-2.50;54.30
21682;DHT22;11002;48.256;10.084;2023-12-04T14:30:54;-2.50;54.40
21682;DHT22;11002;48.256;10.084;2023-12-04T14:33:22;-2.50;54.30
21682;DHT22;11002;48.256;10.084;2023-12-04T14:35:54;-2.70;54.40
21682;DHT22;11002;48.256;10.084;2023-12-04T14:38:25;-2.80;54.90
21682;DHT22;11002;48.256;10.084;2023-12-04T14:40:53;-2.80;55.20
21682;DHT22;11002;48.256;10.084;2023-12-04T14:43:21;-2.90;55.10
21682;DHT22;11002;48.256;10.084;2023-12-04T14:45:58;-2.80;55.50
21682;DHT22;11002;48.256;10.084;2023-12-04T14:48:26;-2.80;55.60
21682;DHT22;11002;48.256;10.084;2023-12-04T14:50:58;-3.00;55.60
21682;DHT22;11002;48.256;10.084;2023-12-04T14:53:39;-2.90;56.10
21682;DHT22;11002;48.256;10.084;2023-12-04T14:56:36;-3.00;56.10
21682;DHT22;11002;48.256;10.084;2023-12-04T14:59:45;-3.00;56.10
21682;DHT22;11002;48.256;10.084;2023-12-04T15:02:50;-3.00;56.70
21682;DHT22;11002;48.256;10.084;2023-12-04T15:05:47;-3.00;57.50
21682;DHT22;11002;48.256;10.084;2023-12-04T15:08:32;-2.90;58.40
21682;DHT22;11002;48.256;10.084;2023-12-04T15:11:31;-2.70;58.50
21682;DHT22;11002;48.256;10.084;2023-12-04T15:14:28;-3.10;57.80
21682;DHT22;11002;48.256;10.084;2023-12-04T15:17:09;-2.90;57.90
21682;DHT22;11002;48.256;10.084;2023-12-04T15:19:55;-3.00;58.20
21682;DHT22;11002;48.256;10.084;2023-12-04T15:23:08;-2.90;58.30
21682;DHT22;11002;48.256;10.084;2023-12-04T15:26:09;-2.80;58.40
21682;DHT22;11002;48.256;10.084;2023-12-04T15:28:40;-3.00;58.20
21682;DHT22;11002;48.256;10.084;2023-12-04T15:31:52;-3.00;58.40
21682;DHT22;11002;48.256;10.084;2023-12-04T15:34:19;-3.00;58.90
21682;DHT22;11002;48.256;10.084;2023-12-04T15:36:52;-3.00;59.20
21682;DHT22;11002;48.256;10.084;2023-12-04T15:39:22;-2.90;59.30
21682;DHT22;11002;48.256;10.084;2023-12-04T15:41:54;-2.80;59.50
21682;DHT22;11002;48.256;10.084;2023-12-04T15:44:26;-2.70;59.60
21682;DHT22;11002;48.256;10.084;2023-12-04T15:47:05;-2.70;59.70
21682;DHT22;11002;48.256;10.084;2023-12-04T15:49:43;-2.70;59.80
21682;DHT22;11002;48.256;10.084;2023-12-04T15:52:39;-3.00;60.20
21682;DHT22;11002;48.256;10.084;2023-12-04T15:55:10;-2.80;60.70
21682;DHT22;11002;48.256;10.084;2023-12-04T15:57:43;-2.80;61.70
21682;DHT22;11002;48.256;10.084;2023-12-04T16:00:13;-2.90;61.20
21682;DHT22;11002;48.256;10.084;2023-12-04T16:02:47;-2.90;61.30
21682;DHT22;11002;48.256;10.084;2023-12-04T16:05:16;-2.90;61.70
21682;DHT22;11002;48.256;10.084;2023-12-04T16:07:55;-2.70;61.90
21682;DHT22;11002;48.256;10.084;2023-12-04T16:10:34;-2.90;61.80
21682;DHT22;11002;48.256;10.084;2023-12-04T16:13:30;-3.00;61.80
21682;DHT22;11002;48.256;10.084;2023-12-04T16:16:53;-2.80;62.20
21682;DHT22;11002;48.256;10.084;2023-12-04T16:19:53;-2.80;62.20
21682;DHT22;11002;48.256;10.084;2023-12-04T16:22:28;-2.80;61.90
21682;DHT22;11002;48.256;10.084;2023-12-04T16:25:03;-2.90;61.30
21682;DHT22;11002;48.256;10.084;2023-12-04T16:27:35;-2.80;61.70
21682;DHT22;11002;48.256;10.084;2023-12-04T16:30:06;-2.80;62.00
21682;DHT22;11002;48.256;10.084;2023-12-04T16:32:39;-2.80;62.00
21682;DHT22;11002;48.256;10.084;2023-12-04T16:35:07;-2.60;62.20
21682;DHT22;11002;48.256;10.084;2023-12-04T16:37:40;-2.80;62.10
21682;DHT22;11002;48.256;10.084;2023-12-04T16:40:14;-2.60;62.30